This is the latest recevied weather packets stored in our database for station/object W4CKA. If no packets are shown the sender has not sent any weather packets the latest 10 day(s).
| Time | Temp. | Humidity | Pressure | Rain* | Wind** | Luminosity | Snow |
|---|---|---|---|---|---|---|---|
| 1777748861 | 15.56° C | 39% | 1056.2 hPa | 0 mm | - | 758 W/m² | - |
| 1777748258 | 14.44° C | 40% | 1056.2 hPa | 0 mm | - | 149 W/m² | - |
| 1777747657 | 16.11° C | 38% | 1056.4 hPa | 0 mm | - | 806 W/m² | - |
| 1777747056 | 15° C | 45% | 1056.3 hPa | 0 mm | - | 772 W/m² | - |
| 1777746453 | 15.56° C | 42% | 1056.4 hPa | 0 mm | - | 218 W/m² | - |
| 1777745852 | 13.89° C | 42% | 1056.3 hPa | 0 mm | - | 161 W/m² | - |
| 1777745248 | 15° C | 42% | 1056.5 hPa | 0 mm | - | 177 W/m² | - |
| 1777744645 | 15° C | 41% | 1056.6 hPa | 0 mm | - | 398 W/m² | - |
| 1777744043 | 15.56° C | 40% | 1056.8 hPa | 0 mm | - | 248 W/m² | - |
| 1777743444 | 15.56° C | 43% | 1056.7 hPa | 0 mm | - | 740 W/m² | - |
| 1777742839 | 14.44° C | 43% | 1056.9 hPa | 0 mm | - | 747 W/m² | - |
| 1777742236 | 15° C | 44% | 1056.9 hPa | 0 mm | - | 577 W/m² | - |
| 1777741636 | 13.89° C | 44% | 1057 hPa | 0 mm | - | 650 W/m² | - |
| 1777741035 | 15.56° C | 45% | 1057.1 hPa | 0 mm | - | 685 W/m² | - |
| 1777740435 | 15° C | 47% | 1057.4 hPa | 0 mm | - | 179 W/m² | - |
| 1777739834 | 14.44° C | 47% | 1057.4 hPa | 0 mm | - | 650 W/m² | - |
| 1777739233 | 15° C | 42% | 1057.6 hPa | 0 mm | - | 661 W/m² | - |
| 1777738633 | 13.89° C | 44% | 1057.6 hPa | 0 mm | - | 676 W/m² | - |
| 1777738028 | 13.33° C | 44% | 1057.7 hPa | 0 mm | - | 640 W/m² | - |
| 1777737425 | 13.33° C | 45% | 1057.6 hPa | 0 mm | - | 685 W/m² | - |
| 1777736823 | 14.44° C | 49% | 1057.6 hPa | 0 mm | - | 646 W/m² | - |
| 1777736194 | 12.78° C | 47% | 1057.8 hPa | 0 mm | - | 681 W/m² | - |
| 1777735589 | 12.78° C | 47% | 1057.9 hPa | 0 mm | - | 667 W/m² | - |
| 1777734989 | 13.33° C | 48% | 1057.8 hPa | 0 mm | - | 703 W/m² | - |
| 1777734384 | 12.22° C | 47% | 1057.9 hPa | 0 mm | - | 673 W/m² | - |
* Rain latest hour (hover to see other rain measurements)
** Current wind speed in m/s (hover to see current wind gust speed)